Terminal Aerodrome Forecast
Issued by NWS

Home | Current Version | Previous Version | Graphics & Text | Print | Product List | Glossary On
Versions: 1 2 3 4 5 6 7 8 9 10 11 12 13 14
000
FTUS43 KMPX 260538
TAFAXN
TAF
KAXN 260538Z 2606/2706 35007KT P6SM BKN013 OVC020
     FM260700 01003KT 4SM BR FEW006 OVC010
     FM261200 01004KT P6SM SCT010 BKN020
     FM261330 01006KT P6SM SCT020 BKN035
     FM261600 34006KT P6SM SCT050
     FM270300 27005KT P6SM SKC=

USA.gov is the U.S. government's official web portal to all federal, state and local government web resources and services.